Nikolas — 3FIJ — position and weather

sailwx.info

Track history (hours):
 
Tides and Currents Weather Stations Pressure Air Temp Water Temp Dewpoint Dewpoint Depression Visibility Wind Speed Wind Dir Waves Ship Positions

Nikolas

Last reported at 2017-Nov-11 21:29 UTC. Time now 2017-Nov-23 13:03 UTC.
Position N 10°38' W 075°45'.
Warning: this ship's position is 11 days out of date.

Length 207 m; draft 8 m.

Type: Cargo ship. MMSI: 357388000.

Date/timePositionNaut miles runAvg speedWind from/ knotsBaromVisibWave heightAir tempDewpointWater temp
2017-Nov-11 21:29N 10°38' W 075°45'510.6
2017-Nov-11 21:00N 10°32' W 075°45'510.5
2017-Nov-11 20:30N 10°27' W 075°45'510.3
2017-Nov-11 20:00N 10°22' W 075°44'5 9.6
2017-Nov-11 19:30N 10°19' W 075°40'5 9.9
2017-Nov-11 19:00N 10°19' W 075°35'5 9.8
2017-Nov-11 18:30N 10°23' W 075°31'0 0.7
2017-Nov-11 17:57N 10°23' W 075°31'0 0.0
2017-Nov-11 17:27N 10°23' W 075°31'0 0.0
2017-Nov-11 16:57N 10°23' W 075°31'0 0.0
2017-Nov-11 16:21N 10°23' W 075°31'0 0.0
2017-Nov-11 15:57N 10°23' W 075°31'0 0.1
2017-Nov-11 15:27N 10°23' W 075°31'0 0.1
2017-Nov-11 14:57N 10°23' W 075°31'0 0.0
2017-Nov-11 14:30N 10°23' W 075°31'0 0.0
2017-Nov-11 13:57N 10°23' W 075°31'0 0.0
2017-Nov-11 13:27N 10°23' W 075°31'0 0.0
2017-Nov-11 12:57N 10°23' W 075°31'0 0.0
2017-Nov-11 12:27N 10°23' W 075°31'0 0.0
2017-Nov-11 11:57N 10°23' W 075°31'0 0.0
2017-Nov-11 11:30N 10°23' W 075°31'0 0.0
2017-Nov-11 10:57N 10°23' W 075°31'0 0.0
2017-Nov-11 10:27N 10°23' W 075°31'0 0.0
2017-Nov-11 09:57N 10°23' W 075°31'0 0.0
2017-Nov-11 09:27N 10°23' W 075°31'0 0.0
2017-Nov-11 08:08N 10°23' W 075°31'0 0.2
2017-Nov-11 08:00N 10°23' W 075°31'3 5.5
2017-Nov-11 07:30N 10°20' W 075°32'510.3
2017-Nov-11 07:00N 10°18' W 075°37'4 8.4
2017-Nov-11 06:30N 10°18' W 075°41'5 9.9
2017-Nov-11 06:00N 10°18' W 075°46'510.0
2017-Nov-11 05:28N 10°17' W 075°52'  
Track history (hours):
 
Tides and Currents Weather Stations Pressure Air Temp Water Temp Dewpoint Dewpoint Depression Visibility Wind Speed Wind Dir Waves Ship Positions

Nikolas

Last reported at 2017-Nov-11 21:29 UTC. Time now 2017-Nov-23 13:03 UTC.
Position N 10°38' W 075°45'.
Warning: this ship's position is 11 days out of date.

Length 207 m; draft 8 m.

Type: Cargo ship. MMSI: 357388000.

Date/timePositionNaut miles runAvg speedWind from/ knotsBaromVisibWave heightAir tempDewpointWater temp
2017-Nov-11 21:29N 10°38' W 075°45'510.6
2017-Nov-11 21:00N 10°32' W 075°45'510.5
2017-Nov-11 20:30N 10°27' W 075°45'510.3
2017-Nov-11 20:00N 10°22' W 075°44'5 9.6
2017-Nov-11 19:30N 10°19' W 075°40'5 9.9
2017-Nov-11 19:00N 10°19' W 075°35'5 9.8
2017-Nov-11 18:30N 10°23' W 075°31'0 0.7
2017-Nov-11 17:57N 10°23' W 075°31'0 0.0
2017-Nov-11 17:27N 10°23' W 075°31'0 0.0
2017-Nov-11 16:57N 10°23' W 075°31'0 0.0
2017-Nov-11 16:21N 10°23' W 075°31'0 0.0
2017-Nov-11 15:57N 10°23' W 075°31'0 0.1
2017-Nov-11 15:27N 10°23' W 075°31'0 0.1
2017-Nov-11 14:57N 10°23' W 075°31'0 0.0
2017-Nov-11 14:30N 10°23' W 075°31'0 0.0
2017-Nov-11 13:57N 10°23' W 075°31'0 0.0
2017-Nov-11 13:27N 10°23' W 075°31'0 0.0
2017-Nov-11 12:57N 10°23' W 075°31'0 0.0
2017-Nov-11 12:27N 10°23' W 075°31'0 0.0
2017-Nov-11 11:57N 10°23' W 075°31'0 0.0
2017-Nov-11 11:30N 10°23' W 075°31'0 0.0
2017-Nov-11 10:57N 10°23' W 075°31'0 0.0
2017-Nov-11 10:27N 10°23' W 075°31'0 0.0
2017-Nov-11 09:57N 10°23' W 075°31'0 0.0
2017-Nov-11 09:27N 10°23' W 075°31'0 0.0
2017-Nov-11 08:08N 10°23' W 075°31'0 0.2
2017-Nov-11 08:00N 10°23' W 075°31'3 5.5
2017-Nov-11 07:30N 10°20' W 075°32'510.3
2017-Nov-11 07:00N 10°18' W 075°37'4 8.4
2017-Nov-11 06:30N 10°18' W 075°41'5 9.9
2017-Nov-11 06:00N 10°18' W 075°46'510.0
2017-Nov-11 05:28N 10°17' W 075°52'  

Dump ship's entire track history